sensor_id;sensor_type;location;lat;lon;timestamp;pressure;altitude;pressure_sealevel;temperature;humidity
10712;BME280;5407;51.234;6.804;2023-03-04T00:02:18;102036.63;;;23.85;33.34
10712;BME280;5407;51.234;6.804;2023-03-04T00:04:46;102026.78;;;23.84;33.38
10712;BME280;5407;51.234;6.804;2023-03-04T00:07:13;102027.56;;;23.84;33.38
10712;BME280;5407;51.234;6.804;2023-03-04T00:09:41;102037.00;;;23.83;33.35
10712;BME280;5407;51.234;6.804;2023-03-04T00:12:08;102022.47;;;23.83;33.48
10712;BME280;5407;51.234;6.804;2023-03-04T00:14:35;102025.22;;;23.83;33.48
10712;BME280;5407;51.234;6.804;2023-03-04T00:17:02;102027.16;;;23.82;33.21
10712;BME280;5407;51.234;6.804;2023-03-04T00:19:29;102022.84;;;23.81;33.36
10712;BME280;5407;51.234;6.804;2023-03-04T00:21:57;102024.41;;;23.82;33.32
10712;BME280;5407;51.234;6.804;2023-03-04T00:24:24;102022.06;;;23.81;33.44
10712;BME280;5407;51.234;6.804;2023-03-04T00:26:51;102022.84;;;23.81;33.34
10712;BME280;5407;51.234;6.804;2023-03-04T00:29:17;102019.31;;;23.81;33.48
10712;BME280;5407;51.234;6.804;2023-03-04T00:31:44;102029.53;;;23.80;33.57
10712;BME280;5407;51.234;6.804;2023-03-04T00:34:11;102021.28;;;23.80;33.43
10712;BME280;5407;51.234;6.804;2023-03-04T00:36:38;102015.75;;;23.80;33.33
10712;BME280;5407;51.234;6.804;2023-03-04T00:39:07;102009.44;;;23.80;33.35
10712;BME280;5407;51.234;6.804;2023-03-04T00:41:34;102008.66;;;23.79;33.34
10712;BME280;5407;51.234;6.804;2023-03-04T00:44:01;102004.72;;;23.80;33.33
10712;BME280;5407;51.234;6.804;2023-03-04T00:46:28;102008.66;;;23.79;33.50
10712;BME280;5407;51.234;6.804;2023-03-04T00:48:56;101999.22;;;23.80;33.32
10712;BME280;5407;51.234;6.804;2023-03-04T00:51:23;102003.13;;;23.79;33.40
10712;BME280;5407;51.234;6.804;2023-03-04T00:53:49;102005.13;;;23.79;33.35
10712;BME280;5407;51.234;6.804;2023-03-04T00:56:18;102001.56;;;23.78;33.30
10712;BME280;5407;51.234;6.804;2023-03-04T00:58:45;102001.56;;;23.78;33.26
10712;BME280;5407;51.234;6.804;2023-03-04T01:01:12;101996.06;;;23.78;33.26
10712;BME280;5407;51.234;6.804;2023-03-04T01:03:39;102005.50;;;23.77;33.27
10712;BME280;5407;51.234;6.804;2023-03-04T01:06:07;102000.00;;;23.77;33.28
10712;BME280;5407;51.234;6.804;2023-03-04T01:08:34;102007.06;;;23.78;33.41
10712;BME280;5407;51.234;6.804;2023-03-04T01:11:01;101993.28;;;23.78;33.42
10712;BME280;5407;51.234;6.804;2023-03-04T01:13:29;102001.56;;;23.78;33.24
10712;BME280;5407;51.234;6.804;2023-03-04T01:15:56;101999.59;;;23.79;33.36
10712;BME280;5407;51.234;6.804;2023-03-04T01:18:23;101996.06;;;23.78;33.37
10712;BME280;5407;51.234;6.804;2023-03-04T01:20:50;101995.28;;;23.78;33.35
10712;BME280;5407;51.234;6.804;2023-03-04T01:23:17;101987.78;;;23.78;33.34
10712;BME280;5407;51.234;6.804;2023-03-04T01:25:44;101995.28;;;23.78;33.46
10712;BME280;5407;51.234;6.804;2023-03-04T01:28:11;101987.78;;;23.78;33.46
10712;BME280;5407;51.234;6.804;2023-03-04T01:30:39;101984.25;;;23.78;33.48
10712;BME280;5407;51.234;6.804;2023-03-04T01:33:06;101979.50;;;23.78;33.41
10712;BME280;5407;51.234;6.804;2023-03-04T01:35:32;101983.47;;;23.77;33.35
10712;BME280;5407;51.234;6.804;2023-03-04T01:37:59;101983.47;;;23.77;33.30
10712;BME280;5407;51.234;6.804;2023-03-04T01:40:26;101974.00;;;23.78;33.28
10712;BME280;5407;51.234;6.804;2023-03-04T01:42:53;101978.75;;;23.78;33.27
10712;BME280;5407;51.234;6.804;2023-03-04T01:45:20;101978.75;;;23.78;33.29
10712;BME280;5407;51.234;6.804;2023-03-04T01:47:48;101974.00;;;23.78;33.37
10712;BME280;5407;51.234;6.804;2023-03-04T01:50:20;101973.22;;;23.78;33.42
10712;BME280;5407;51.234;6.804;2023-03-04T01:52:48;101965.72;;;23.78;33.36
10712;BME280;5407;51.234;6.804;2023-03-04T01:55:17;101955.91;;;23.77;33.27
10712;BME280;5407;51.234;6.804;2023-03-04T01:57:45;101965.72;;;23.78;33.35
10712;BME280;5407;51.234;6.804;2023-03-04T02:00:28;101964.56;;;23.79;33.28
10712;BME280;5407;51.234;6.804;2023-03-04T02:03:00;101951.97;;;23.78;33.31
10712;BME280;5407;51.234;6.804;2023-03-04T02:05:28;101955.13;;;23.80;33.28
10712;BME280;5407;51.234;6.804;2023-03-04T02:07:56;101959.84;;;23.80;33.27
10712;BME280;5407;51.234;6.804;2023-03-04T02:10:23;101957.88;;;23.80;33.34
10712;BME280;5407;51.234;6.804;2023-03-04T02:12:51;101960.63;;;23.80;33.39
10712;BME280;5407;51.234;6.804;2023-03-04T02:15:18;101963.41;;;23.80;33.37
10712;BME280;5407;51.234;6.804;2023-03-04T02:17:46;101960.63;;;23.80;33.26
10712;BME280;5407;51.234;6.804;2023-03-04T02:20:20;101956.69;;;23.81;33.28
10712;BME280;5407;51.234;6.804;2023-03-04T02:22:55;101950.41;;;23.81;33.37
10712;BME280;5407;51.234;6.804;2023-03-04T02:25:30;101947.66;;;23.81;33.42
10712;BME280;5407;51.234;6.804;2023-03-04T02:28:00;101955.50;;;23.82;33.40
10712;BME280;5407;51.234;6.804;2023-03-04T02:30:27;101945.66;;;23.81;33.47
10712;BME280;5407;51.234;6.804;2023-03-04T02:32:54;101946.84;;;23.80;33.56
10712;BME280;5407;51.234;6.804;2023-03-04T02:35:21;101949.63;;;23.80;33.54
10712;BME280;5407;51.234;6.804;2023-03-04T02:37:48;101948.44;;;23.81;33.48
10712;BME280;5407;51.234;6.804;2023-03-04T02:40:21;101949.63;;;23.80;33.60
10712;BME280;5407;51.234;6.804;2023-03-04T02:42:49;101944.91;;;23.81;33.67
10712;BME280;5407;51.234;6.804;2023-03-04T02:45:41;101939.38;;;23.81;33.68
10712;BME280;5407;51.234;6.804;2023-03-04T02:48:09;101933.06;;;23.80;33.46
10712;BME280;5407;51.234;6.804;2023-03-04T02:50:41;101930.72;;;23.79;33.60
10712;BME280;5407;51.234;6.804;2023-03-04T02:53:08;101935.41;;;23.78;33.70
10712;BME280;5407;51.234;6.804;2023-03-04T02:55:35;101927.56;;;23.80;33.54
10712;BME280;5407;51.234;6.804;2023-03-04T02:58:02;101931.47;;;23.79;33.61
10712;BME280;5407;51.234;6.804;2023-03-04T03:00:29;101926.75;;;23.80;33.58
10712;BME280;5407;51.234;6.804;2023-03-04T03:02:58;101922.06;;;23.80;33.56
10712;BME280;5407;51.234;6.804;2023-03-04T03:05:26;101927.56;;;23.80;33.56
10712;BME280;5407;51.234;6.804;2023-03-04T03:07:54;101919.28;;;23.80;33.50
10712;BME280;5407;51.234;6.804;2023-03-04T03:10:22;101921.25;;;23.80;33.52
10712;BME280;5407;51.234;6.804;2023-03-04T03:12:49;101914.94;;;23.79;33.43
10712;BME280;5407;51.234;6.804;2023-03-04T03:15:18;101923.22;;;23.79;33.53
10712;BME280;5407;51.234;6.804;2023-03-04T03:17:45;101917.34;;;23.81;33.41
10712;BME280;5407;51.234;6.804;2023-03-04T03:20:15;101917.34;;;23.81;33.48
10712;BME280;5407;51.234;6.804;2023-03-04T03:22:42;101916.53;;;23.80;33.76
10712;BME280;5407;51.234;6.804;2023-03-04T03:25:11;101916.53;;;23.80;33.31
10712;BME280;5407;51.234;6.804;2023-03-04T03:27:38;101911.84;;;23.81;33.42
10712;BME280;5407;51.234;6.804;2023-03-04T03:30:08;101911.03;;;23.80;33.47
10712;BME280;5407;51.234;6.804;2023-03-04T03:32:35;101908.28;;;23.80;33.37
10712;BME280;5407;51.234;6.804;2023-03-04T03:35:03;101911.03;;;23.80;33.31
10712;BME280;5407;51.234;6.804;2023-03-04T03:37:31;101910.22;;;23.80;33.55
10712;BME280;5407;51.234;6.804;2023-03-04T03:39:59;101911.03;;;23.80;33.41
10712;BME280;5407;51.234;6.804;2023-03-04T03:42:26;101909.44;;;23.79;33.31
10712;BME280;5407;51.234;6.804;2023-03-04T03:44:52;101916.53;;;23.80;33.25
10712;BME280;5407;51.234;6.804;2023-03-04T03:47:20;101911.03;;;23.80;33.33
10712;BME280;5407;51.234;6.804;2023-03-04T03:49:47;101903.91;;;23.79;33.44
10712;BME280;5407;51.234;6.804;2023-03-04T03:52:14;101898.41;;;23.79;33.37
10712;BME280;5407;51.234;6.804;2023-03-04T03:54:42;101897.63;;;23.79;33.34
10712;BME280;5407;51.234;6.804;2023-03-04T03:57:09;101903.91;;;23.79;33.43
10712;BME280;5407;51.234;6.804;2023-03-04T03:59:36;101902.34;;;23.78;33.29
10712;BME280;5407;51.234;6.804;2023-03-04T04:02:03;101896.06;;;23.78;33.32
10712;BME280;5407;51.234;6.804;2023-03-04T04:04:30;101895.28;;;23.77;33.38
10712;BME280;5407;51.234;6.804;2023-03-04T04:06:56;101905.53;;;23.77;33.34
10712;BME280;5407;51.234;6.804;2023-03-04T04:09:23;101906.28;;;23.77;33.38
10712;BME280;5407;51.234;6.804;2023-03-04T04:11:51;101910.22;;;23.76;33.63
10712;BME280;5407;51.234;6.804;2023-03-04T04:14:18;101902.75;;;23.77;33.56
10712;BME280;5407;51.234;6.804;2023-03-04T04:16:45;101899.22;;;23.76;33.67
10712;BME280;5407;51.234;6.804;2023-03-04T04:19:16;101897.63;;;23.75;33.76
10712;BME280;5407;51.234;6.804;2023-03-04T04:21:44;101891.75;;;23.77;33.68
10712;BME280;5407;51.234;6.804;2023-03-04T04:24:10;101888.19;;;23.76;33.51
10712;BME280;5407;51.234;6.804;2023-03-04T04:26:37;101894.50;;;23.77;33.49
10712;BME280;5407;51.234;6.804;2023-03-04T04:29:06;101893.69;;;23.76;33.43
10712;BME280;5407;51.234;6.804;2023-03-04T04:31:34;101899.22;;;23.76;33.52
10712;BME280;5407;51.234;6.804;2023-03-04T04:34:01;101892.50;;;23.77;33.53
10712;BME280;5407;51.234;6.804;2023-03-04T04:36:28;101889.75;;;23.77;33.60
10712;BME280;5407;51.234;6.804;2023-03-04T04:38:54;101905.53;;;23.77;33.79
10712;BME280;5407;51.234;6.804;2023-03-04T04:41:24;101908.66;;;23.75;33.85
10712;BME280;5407;51.234;6.804;2023-03-04T04:43:52;101907.47;;;23.76;33.85
10712;BME280;5407;51.234;6.804;2023-03-04T04:46:20;101897.25;;;23.73;34.08
10712;BME280;5407;51.234;6.804;2023-03-04T04:48:47;101903.56;;;23.74;34.11
10712;BME280;5407;51.234;6.804;2023-03-04T04:51:14;101900.00;;;23.73;34.07
10712;BME280;5407;51.234;6.804;2023-03-04T04:53:41;101901.19;;;23.73;34.14
10712;BME280;5407;51.234;6.804;2023-03-04T04:56:10;101908.69;;;23.72;34.20
10712;BME280;5407;51.234;6.804;2023-03-04T04:58:37;101900.84;;;23.67;34.27
10712;BME280;5407;51.234;6.804;2023-03-04T05:01:04;101904.38;;;23.68;34.23
10712;BME280;5407;51.234;6.804;2023-03-04T05:03:34;101905.56;;;23.67;34.36
10712;BME280;5407;51.234;6.804;2023-03-04T05:06:01;101905.56;;;23.67;34.19
10712;BME280;5407;51.234;6.804;2023-03-04T05:08:29;101910.31;;;23.66;34.44
10712;BME280;5407;51.234;6.804;2023-03-04T05:10:56;101910.31;;;23.66;34.34
10712;BME280;5407;51.234;6.804;2023-03-04T05:13:23;101910.69;;;23.65;34.34
10712;BME280;5407;51.234;6.804;2023-03-04T05:15:50;101907.94;;;23.65;34.28
10712;BME280;5407;51.234;6.804;2023-03-04T05:18:17;101909.50;;;23.66;34.33
10712;BME280;5407;51.234;6.804;2023-03-04T05:20:49;101905.56;;;23.67;34.30
10712;BME280;5407;51.234;6.804;2023-03-04T05:23:16;101910.31;;;23.66;34.27
10712;BME280;5407;51.234;6.804;2023-03-04T05:25:42;101902.81;;;23.67;34.22
10712;BME280;5407;51.234;6.804;2023-03-04T05:28:09;101901.63;;;23.68;34.21
10712;BME280;5407;51.234;6.804;2023-03-04T05:30:37;101902.81;;;23.67;34.29
10712;BME280;5407;51.234;6.804;2023-03-04T05:33:03;101905.56;;;23.67;34.18
10712;BME280;5407;51.234;6.804;2023-03-04T05:35:31;101908.69;;;23.69;34.24
10712;BME280;5407;51.234;6.804;2023-03-04T05:37:59;101907.50;;;23.70;34.14
10712;BME280;5407;51.234;6.804;2023-03-04T05:40:26;101909.88;;;23.71;34.20
10712;BME280;5407;51.234;6.804;2023-03-04T05:42:53;101908.69;;;23.72;34.08
10712;BME280;5407;51.234;6.804;2023-03-04T05:45:21;101908.69;;;23.72;34.10
10712;BME280;5407;51.234;6.804;2023-03-04T05:47:48;101903.19;;;23.72;34.01
10712;BME280;5407;51.234;6.804;2023-03-04T05:50:15;101905.53;;;23.73;34.08
10712;BME280;5407;51.234;6.804;2023-03-04T05:52:42;101903.19;;;23.72;34.12
10712;BME280;5407;51.234;6.804;2023-03-04T05:55:10;101910.66;;;23.72;34.13
10712;BME280;5407;51.234;6.804;2023-03-04T05:57:37;101917.31;;;23.77;33.99
10712;BME280;5407;51.234;6.804;2023-03-04T06:00:05;101916.13;;;23.78;33.97
10712;BME280;5407;51.234;6.804;2023-03-04T06:02:38;101908.66;;;23.79;33.86
10712;BME280;5407;51.234;6.804;2023-03-04T06:05:06;101915.75;;;23.80;33.79
10712;BME280;5407;51.234;6.804;2023-03-04T06:07:33;101918.13;;;23.81;33.70
10712;BME280;5407;51.234;6.804;2023-03-04T06:10:00;101921.66;;;23.82;33.83
10712;BME280;5407;51.234;6.804;2023-03-04T06:12:28;101918.13;;;23.81;33.80
10712;BME280;5407;51.234;6.804;2023-03-04T06:14:55;101921.66;;;23.82;33.74
10712;BME280;5407;51.234;6.804;2023-03-04T06:17:22;101920.47;;;23.83;33.83
10712;BME280;5407;51.234;6.804;2023-03-04T06:19:49;101932.28;;;23.83;33.75
10712;BME280;5407;51.234;6.804;2023-03-04T06:22:16;101925.19;;;23.82;33.84
10712;BME280;5407;51.234;6.804;2023-03-04T06:24:42;101929.94;;;23.82;33.80
10712;BME280;5407;51.234;6.804;2023-03-04T06:27:09;101930.72;;;23.82;33.57
10712;BME280;5407;51.234;6.804;2023-03-04T06:29:39;101937.41;;;23.81;33.73
10712;BME280;5407;51.234;6.804;2023-03-04T06:32:06;101938.97;;;23.82;33.74
10712;BME280;5407;51.234;6.804;2023-03-04T06:34:32;101934.66;;;23.81;33.87
10712;BME280;5407;51.234;6.804;2023-03-04T06:37:00;101934.66;;;23.81;33.83
10712;BME280;5407;51.234;6.804;2023-03-04T06:39:27;101940.16;;;23.81;33.83
10712;BME280;5407;51.234;6.804;2023-03-04T06:41:54;101946.47;;;23.82;33.73
10712;BME280;5407;51.234;6.804;2023-03-04T06:44:21;101942.91;;;23.81;33.75
10712;BME280;5407;51.234;6.804;2023-03-04T06:46:49;101945.66;;;23.81;33.85
10712;BME280;5407;51.234;6.804;2023-03-04T06:49:16;101950.41;;;23.81;33.92
10712;BME280;5407;51.234;6.804;2023-03-04T06:51:42;101943.69;;;23.78;33.92
10712;BME280;5407;51.234;6.804;2023-03-04T06:54:09;101949.63;;;23.80;33.93
10712;BME280;5407;51.234;6.804;2023-03-04T06:56:36;101957.47;;;23.78;33.81
10712;BME280;5407;51.234;6.804;2023-03-04T06:59:03;101951.19;;;23.78;33.85
10712;BME280;5407;51.234;6.804;2023-03-04T07:01:30;101953.56;;;23.76;33.95
10712;BME280;5407;51.234;6.804;2023-03-04T07:03:58;101957.09;;;23.76;33.92
10712;BME280;5407;51.234;6.804;2023-03-04T07:06:27;101950.00;;;23.75;33.88
10712;BME280;5407;51.234;6.804;2023-03-04T07:08:54;101951.19;;;23.74;33.89
10712;BME280;5407;51.234;6.804;2023-03-04T07:11:22;101955.13;;;23.73;33.98
10712;BME280;5407;51.234;6.804;2023-03-04T07:13:49;101951.19;;;23.74;34.00
10712;BME280;5407;51.234;6.804;2023-03-04T07:16:18;101957.88;;;23.73;33.83
10712;BME280;5407;51.234;6.804;2023-03-04T07:18:45;101961.06;;;23.72;34.05
10712;BME280;5407;51.234;6.804;2023-03-04T07:21:14;101956.31;;;23.73;33.93
10712;BME280;5407;51.234;6.804;2023-03-04T07:23:41;101958.28;;;23.75;33.92
10712;BME280;5407;51.234;6.804;2023-03-04T07:26:08;101962.22;;;23.74;33.89
10712;BME280;5407;51.234;6.804;2023-03-04T07:28:35;101961.41;;;23.77;33.97
10712;BME280;5407;51.234;6.804;2023-03-04T07:31:10;101961.41;;;23.77;33.80
10712;BME280;5407;51.234;6.804;2023-03-04T07:33:37;101966.91;;;23.77;33.94
10712;BME280;5407;51.234;6.804;2023-03-04T07:36:05;101968.50;;;23.78;33.72
10712;BME280;5407;51.234;6.804;2023-03-04T07:38:33;101969.28;;;23.79;33.62
10712;BME280;5407;51.234;6.804;2023-03-04T07:41:00;101967.31;;;23.79;33.45
10712;BME280;5407;51.234;6.804;2023-03-04T07:43:27;101971.66;;;23.80;33.61
10712;BME280;5407;51.234;6.804;2023-03-04T07:45:58;101970.88;;;23.80;33.49
10712;BME280;5407;51.234;6.804;2023-03-04T07:48:25;101981.50;;;23.81;33.55
10712;BME280;5407;51.234;6.804;2023-03-04T07:51:02;101978.75;;;23.81;33.58
10712;BME280;5407;51.234;6.804;2023-03-04T07:53:30;101981.50;;;23.81;33.43
10712;BME280;5407;51.234;6.804;2023-03-04T07:55:58;101977.97;;;23.81;33.42
10712;BME280;5407;51.234;6.804;2023-03-04T07:58:25;101985.81;;;23.82;33.21
10712;BME280;5407;51.234;6.804;2023-03-04T08:00:52;101981.50;;;23.81;33.32
10712;BME280;5407;51.234;6.804;2023-03-04T08:03:19;101979.53;;;23.82;33.38
10712;BME280;5407;51.234;6.804;2023-03-04T08:05:45;101977.97;;;23.81;33.35
10712;BME280;5407;51.234;6.804;2023-03-04T08:08:12;101984.25;;;23.81;33.37
10712;BME280;5407;51.234;6.804;2023-03-04T08:10:39;101979.94;;;23.80;33.38
10712;BME280;5407;51.234;6.804;2023-03-04T08:13:07;101982.69;;;23.80;33.46
10712;BME280;5407;51.234;6.804;2023-03-04T08:15:38;101987.41;;;23.80;33.48
10712;BME280;5407;51.234;6.804;2023-03-04T08:18:05;101985.44;;;23.80;33.46
10712;BME280;5407;51.234;6.804;2023-03-04T08:20:32;101982.69;;;23.80;33.51
10712;BME280;5407;51.234;6.804;2023-03-04T08:22:59;101980.31;;;23.79;33.63
10712;BME280;5407;51.234;6.804;2023-03-04T08:25:26;101988.97;;;23.77;33.76
10712;BME280;5407;51.234;6.804;2023-03-04T08:27:53;101987.41;;;23.76;33.71
10712;BME280;5407;51.234;6.804;2023-03-04T08:30:21;101976.75;;;23.78;33.51
10712;BME280;5407;51.234;6.804;2023-03-04T08:32:48;101977.56;;;23.79;33.56
10712;BME280;5407;51.234;6.804;2023-03-04T08:35:15;101982.28;;;23.78;33.69
10712;BME280;5407;51.234;6.804;2023-03-04T08:37:42;101981.50;;;23.78;33.76
10712;BME280;5407;51.234;6.804;2023-03-04T08:40:11;101980.31;;;23.75;33.84
10712;BME280;5407;51.234;6.804;2023-03-04T08:42:38;101991.34;;;23.79;33.82
10712;BME280;5407;51.234;6.804;2023-03-04T08:45:05;101988.97;;;23.84;33.76
10712;BME280;5407;51.234;6.804;2023-03-04T08:47:34;101990.53;;;23.89;33.43
10712;BME280;5407;51.234;6.804;2023-03-04T08:50:00;101989.75;;;23.92;33.60
10712;BME280;5407;51.234;6.804;2023-03-04T08:52:28;101983.03;;;23.96;33.55
10712;BME280;5407;51.234;6.804;2023-03-04T08:54:55;101988.94;;;23.98;33.54
10712;BME280;5407;51.234;6.804;2023-03-04T08:57:22;101982.25;;;23.99;33.60
10712;BME280;5407;51.234;6.804;2023-03-04T08:59:49;101986.56;;;24.00;33.47
10712;BME280;5407;51.234;6.804;2023-03-04T09:02:16;101981.81;;;24.01;33.66
10712;BME280;5407;51.234;6.804;2023-03-04T09:04:44;101984.19;;;24.02;33.59
10712;BME280;5407;51.234;6.804;2023-03-04T09:07:11;101974.72;;;24.03;33.45
10712;BME280;5407;51.234;6.804;2023-03-04T09:09:38;101979.06;;;24.04;33.48
10712;BME280;5407;51.234;6.804;2023-03-04T09:12:06;101986.53;;;24.04;33.45
10712;BME280;5407;51.234;6.804;2023-03-04T09:14:33;101983.00;;;24.03;33.44
10712;BME280;5407;51.234;6.804;2023-03-04T09:17:00;101979.44;;;24.03;33.51
10712;BME280;5407;51.234;6.804;2023-03-04T09:19:27;101976.31;;;24.04;33.40
10712;BME280;5407;51.234;6.804;2023-03-04T09:21:55;101984.56;;;24.04;33.41
10712;BME280;5407;51.234;6.804;2023-03-04T09:24:24;101990.09;;;24.04;33.42
10712;BME280;5407;51.234;6.804;2023-03-04T09:26:53;101992.84;;;24.04;33.42
10712;BME280;5407;51.234;6.804;2023-03-04T09:29:21;101986.53;;;24.04;33.44
10712;BME280;5407;51.234;6.804;2023-03-04T09:31:48;101983.38;;;24.05;33.53
10712;BME280;5407;51.234;6.804;2023-03-04T09:34:15;101983.38;;;24.05;33.61
10712;BME280;5407;51.234;6.804;2023-03-04T09:36:42;101984.16;;;24.06;33.50
10712;BME280;5407;51.234;6.804;2023-03-04T09:39:10;101986.91;;;24.06;33.64
10712;BME280;5407;51.234;6.804;2023-03-04T09:41:40;101988.47;;;24.07;33.59
10712;BME280;5407;51.234;6.804;2023-03-04T09:44:14;101982.19;;;24.06;33.53
10712;BME280;5407;51.234;6.804;2023-03-04T09:46:43;101982.19;;;24.06;33.61
10712;BME280;5407;51.234;6.804;2023-03-04T09:49:12;101984.94;;;24.06;33.45
10712;BME280;5407;51.234;6.804;2023-03-04T09:51:46;101986.53;;;24.07;33.60
10712;BME280;5407;51.234;6.804;2023-03-04T09:54:24;101980.22;;;24.07;33.38
10712;BME280;5407;51.234;6.804;2023-03-04T09:56:57;101986.53;;;24.07;33.43
10712;BME280;5407;51.234;6.804;2023-03-04T09:59:29;101974.69;;;24.07;33.55
10712;BME280;5407;51.234;6.804;2023-03-04T10:01:59;101980.22;;;24.07;33.59
10712;BME280;5407;51.234;6.804;2023-03-04T10:04:32;101969.97;;;24.07;33.46
10712;BME280;5407;51.234;6.804;2023-03-04T10:07:01;101972.75;;;24.07;33.49
10712;BME280;5407;51.234;6.804;2023-03-04T10:09:41;101969.97;;;24.07;33.51
10712;BME280;5407;51.234;6.804;2023-03-04T10:12:12;101971.56;;;24.08;33.72
10712;BME280;5407;51.234;6.804;2023-03-04T10:14:44;101964.47;;;24.07;33.67
10712;BME280;5407;51.234;6.804;2023-03-04T10:17:18;101958.94;;;24.07;33.52
10712;BME280;5407;51.234;6.804;2023-03-04T10:19:53;101960.53;;;24.08;33.65
10712;BME280;5407;51.234;6.804;2023-03-04T10:22:26;101963.28;;;24.08;33.55
10712;BME280;5407;51.234;6.804;2023-03-04T10:24:58;101961.28;;;24.09;33.64
10712;BME280;5407;51.234;6.804;2023-03-04T10:27:27;101960.53;;;24.08;33.61
10712;BME280;5407;51.234;6.804;2023-03-04T10:29:55;101951.84;;;24.10;33.65
10712;BME280;5407;51.234;6.804;2023-03-04T10:32:24;101957.34;;;24.10;33.76
10712;BME280;5407;51.234;6.804;2023-03-04T10:34:51;101952.63;;;24.10;33.76
10712;BME280;5407;51.234;6.804;2023-03-04T10:37:18;101947.13;;;24.10;33.59
10712;BME280;5407;51.234;6.804;2023-03-04T10:39:46;101947.88;;;24.11;33.65
10712;BME280;5407;51.234;6.804;2023-03-04T10:42:26;101938.44;;;24.12;33.66
10712;BME280;5407;51.234;6.804;2023-03-04T10:44:57;101941.19;;;24.12;33.55
10712;BME280;5407;51.234;6.804;2023-03-04T10:47:25;101939.22;;;24.12;33.54
10712;BME280;5407;51.234;6.804;2023-03-04T10:49:55;101944.75;;;24.12;33.66
10712;BME280;5407;51.234;6.804;2023-03-04T10:52:27;101936.47;;;24.12;33.69
10712;BME280;5407;51.234;6.804;2023-03-04T10:54:56;101940.03;;;24.13;33.57
10712;BME280;5407;51.234;6.804;2023-03-04T10:57:32;101937.28;;;24.13;33.62
10712;BME280;5407;51.234;6.804;2023-03-04T11:00:00;101932.53;;;24.13;33.61
10712;BME280;5407;51.234;6.804;2023-03-04T11:02:29;101931.34;;;24.14;33.54
10712;BME280;5407;51.234;6.804;2023-03-04T11:05:06;101931.34;;;24.14;33.72
10712;BME280;5407;51.234;6.804;2023-03-04T11:07:38;101928.56;;;24.14;33.44
10712;BME280;5407;51.234;6.804;2023-03-04T11:10:07;101927.81;;;24.14;33.60
10712;BME280;5407;51.234;6.804;2023-03-04T11:12:36;101928.56;;;24.14;33.41
10712;BME280;5407;51.234;6.804;2023-03-04T11:15:16;101928.56;;;24.14;33.57
10712;BME280;5407;51.234;6.804;2023-03-04T11:17:48;101928.56;;;24.14;33.28
10712;BME280;5407;51.234;6.804;2023-03-04T11:20:24;101925.81;;;24.14;33.40
10712;BME280;5407;51.234;6.804;2023-03-04T11:22:52;101921.09;;;24.15;33.45
10712;BME280;5407;51.234;6.804;2023-03-04T11:25:25;101924.63;;;24.15;33.67
10712;BME280;5407;51.234;6.804;2023-03-04T11:27:55;101914.78;;;24.14;33.63
10712;BME280;5407;51.234;6.804;2023-03-04T11:30:33;101912.41;;;24.16;33.69
10712;BME280;5407;51.234;6.804;2023-03-04T11:33:10;101907.69;;;24.17;33.46
10712;BME280;5407;51.234;6.804;2023-03-04T11:35:44;101913.22;;;24.17;33.60
10712;BME280;5407;51.234;6.804;2023-03-04T11:38:17;101906.13;;;24.16;33.38
10712;BME280;5407;51.234;6.804;2023-03-04T11:40:48;101910.84;;;24.15;33.65
10712;BME280;5407;51.234;6.804;2023-03-04T11:43:19;101899.03;;;24.15;33.56
10712;BME280;5407;51.234;6.804;2023-03-04T11:46:02;101900.63;;;24.16;33.46
10712;BME280;5407;51.234;6.804;2023-03-04T11:48:41;101906.13;;;24.16;33.63
10712;BME280;5407;51.234;6.804;2023-03-04T11:51:16;101901.38;;;24.16;33.56
10712;BME280;5407;51.234;6.804;2023-03-04T11:53:55;101894.28;;;24.15;33.68
10712;BME280;5407;51.234;6.804;2023-03-04T11:56:31;101887.59;;;24.16;33.53
10712;BME280;5407;51.234;6.804;2023-03-04T12:10:27;101870.66;;;24.18;33.60
10712;BME280;5407;51.234;6.804;2023-03-04T12:13:15;101865.91;;;24.18;33.56
10712;BME280;5407;51.234;6.804;2023-03-04T12:15:52;101861.59;;;24.17;33.72
10712;BME280;5407;51.234;6.804;2023-03-04T12:18:35;101861.19;;;24.19;33.53
10712;BME280;5407;51.234;6.804;2023-03-04T12:21:16;101850.16;;;24.19;33.58
10712;BME280;5407;51.234;6.804;2023-03-04T12:24:17;101856.44;;;24.19;33.62
10712;BME280;5407;51.234;6.804;2023-03-04T12:26:54;101848.19;;;24.19;33.64
10712;BME280;5407;51.234;6.804;2023-03-04T12:29:28;101845.41;;;24.19;33.63
10712;BME280;5407;51.234;6.804;2023-03-04T12:32:03;101843.03;;;24.21;33.70
10712;BME280;5407;51.234;6.804;2023-03-04T12:37:39;101832.38;;;24.23;33.62
10712;BME280;5407;51.234;6.804;2023-03-04T12:40:26;101826.06;;;24.26;33.52
10712;BME280;5407;51.234;6.804;2023-03-04T12:43:18;101827.25;;;24.25;33.65
10712;BME280;5407;51.234;6.804;2023-03-04T12:45:59;101826.84;;;24.27;33.47
10712;BME280;5407;51.234;6.804;2023-03-04T12:48:31;101827.63;;;24.27;33.45
10712;BME280;5407;51.234;6.804;2023-03-04T12:51:17;101820.91;;;24.28;33.60
10712;BME280;5407;51.234;6.804;2023-03-04T12:54:04;101820.91;;;24.28;33.58
10712;BME280;5407;51.234;6.804;2023-03-04T12:56:39;101809.50;;;24.26;33.49
10712;BME280;5407;51.234;6.804;2023-03-04T12:59:13;101814.63;;;24.28;33.62
10712;BME280;5407;51.234;6.804;2023-03-04T13:01:45;101820.91;;;24.28;33.70
10712;BME280;5407;51.234;6.804;2023-03-04T13:04:21;101809.13;;;24.28;33.66
10712;BME280;5407;51.234;6.804;2023-03-04T13:07:01;101815.41;;;24.28;33.74
10712;BME280;5407;51.234;6.804;2023-03-04T13:09:36;101805.16;;;24.29;33.71
10712;BME280;5407;51.234;6.804;2023-03-04T13:12:13;101818.16;;;24.28;33.61
10712;BME280;5407;51.234;6.804;2023-03-04T13:17:47;101805.16;;;24.29;33.53
10712;BME280;5407;51.234;6.804;2023-03-04T13:20:22;101809.88;;;24.28;33.83
10712;BME280;5407;51.234;6.804;2023-03-04T13:22:54;101802.03;;;24.27;33.54
10712;BME280;5407;51.234;6.804;2023-03-04T13:25:31;101806.38;;;24.24;33.56
10712;BME280;5407;51.234;6.804;2023-03-04T13:28:22;101798.91;;;24.25;33.65
10712;BME280;5407;51.234;6.804;2023-03-04T13:31:17;101802.84;;;24.24;33.73